createdAt,value
2022-08-15T00:00:26.231Z,25.60
2022-08-15T00:02:59.912Z,25.60
2022-08-15T00:05:30.276Z,25.55
2022-08-15T00:07:57.191Z,25.53
2022-08-15T00:11:01.766Z,25.53
2022-08-15T00:13:17.059Z,25.53
2022-08-15T00:15:44.266Z,25.52
2022-08-15T00:18:12.426Z,25.53
2022-08-15T00:20:50.323Z,25.53
2022-08-15T00:23:19.430Z,25.52
2022-08-15T00:25:57.391Z,25.51
2022-08-15T00:28:35.459Z,25.50
2022-08-15T00:31:07.005Z,25.48
2022-08-15T00:33:39.804Z,25.46
2022-08-15T00:36:52.197Z,25.44
2022-08-15T00:38:55.894Z,25.42
2022-08-15T00:41:43.142Z,25.37
2022-08-15T00:44:14.626Z,25.33
2022-08-15T00:46:48.415Z,25.31
2022-08-15T00:49:17.518Z,25.31
2022-08-15T00:51:55.419Z,25.28
2022-08-15T00:54:57.094Z,25.23
2022-08-15T00:57:58.280Z,25.19
2022-08-15T01:00:33.997Z,25.17
2022-08-15T01:03:03.529Z,25.16
2022-08-15T01:05:30.916Z,25.16
2022-08-15T01:07:58.173Z,25.15
2022-08-15T01:10:25.938Z,25.15
2022-08-15T01:12:55.134Z,25.15
2022-08-15T01:15:28.204Z,25.14
2022-08-15T01:17:56.414Z,25.13
2022-08-15T01:20:26.453Z,25.11
2022-08-15T01:23:20.923Z,25.10
2022-08-15T01:26:41.816Z,25.08
2022-08-15T01:28:51.895Z,25.06
2022-08-15T01:31:20.165Z,25.03
2022-08-15T01:33:49.206Z,25.00
2022-08-15T01:36:32.174Z,24.98
2022-08-15T01:39:17.594Z,24.95
2022-08-15T01:41:55.413Z,24.92
2022-08-15T01:44:50.322Z,24.87
2022-08-15T01:47:42.416Z,24.81
2022-08-15T01:50:29.793Z,24.74
2022-08-15T01:53:09.543Z,24.69
2022-08-15T01:56:28.485Z,24.64
2022-08-15T01:58:57.452Z,24.57
2022-08-15T02:01:36.418Z,24.51
2022-08-15T02:04:09.490Z,24.46
2022-08-15T02:06:56.704Z,24.41
2022-08-15T02:09:37.868Z,24.35
2022-08-15T02:13:02.228Z,24.28
2022-08-15T02:15:01.180Z,24.22
2022-08-15T02:17:31.608Z,24.16
2022-08-15T02:20:00.553Z,24.11
2022-08-15T02:22:28.310Z,24.07
2022-08-15T02:24:57.111Z,24.03
2022-08-15T02:27:26.286Z,24.09
2022-08-15T02:29:53.827Z,24.17
2022-08-15T02:32:27.124Z,24.03
2022-08-15T02:34:58.273Z,23.93
2022-08-15T02:37:25.686Z,23.88
2022-08-15T02:39:58.252Z,23.85
2022-08-15T02:42:40.720Z,23.79
2022-08-15T02:45:14.935Z,23.75
2022-08-15T02:47:45.258Z,23.73
2022-08-15T02:50:14.869Z,23.73
2022-08-15T02:52:44.624Z,23.69
2022-08-15T02:55:15.130Z,23.67
2022-08-15T02:57:58.287Z,23.63
2022-08-15T03:00:29.287Z,23.58
2022-08-15T03:02:59.145Z,23.53
2022-08-15T03:05:28.103Z,23.49
2022-08-15T03:07:55.566Z,23.47
2022-08-15T03:10:29.064Z,23.47
2022-08-15T03:12:58.375Z,23.48
2022-08-15T03:15:38.431Z,23.48
2022-08-15T03:18:07.631Z,23.49
2022-08-15T03:20:36.658Z,23.52
2022-08-15T03:23:06.018Z,23.54
2022-08-15T03:25:48.901Z,23.56
2022-08-15T03:28:27.680Z,23.59
2022-08-15T03:30:56.883Z,23.64
2022-08-15T03:33:32.518Z,23.65
2022-08-15T03:36:11.877Z,23.66
2022-08-15T03:38:52.010Z,23.66
2022-08-15T03:41:20.114Z,23.69
2022-08-15T03:43:49.723Z,23.71
2022-08-15T03:46:19.151Z,23.74
2022-08-15T03:48:55.459Z,23.81
2022-08-15T03:51:24.697Z,23.86
2022-08-15T03:53:56.559Z,23.89
2022-08-15T03:56:25.753Z,23.94
2022-08-15T03:58:53.529Z,23.98
2022-08-15T04:01:29.047Z,24.02
2022-08-15T04:03:56.645Z,24.07
2022-08-15T04:06:28.219Z,24.11
2022-08-15T04:09:12.952Z,24.15
2022-08-15T04:11:41.555Z,24.18
2022-08-15T04:14:32.257Z,24.23
2022-08-15T04:17:03.009Z,24.28
2022-08-15T04:19:46.535Z,24.34
2022-08-15T04:22:28.122Z,24.41
2022-08-15T04:25:17.993Z,24.49
2022-08-15T04:27:48.951Z,24.57
2022-08-15T04:30:20.929Z,24.65
2022-08-15T04:32:59.664Z,24.74
2022-08-15T04:35:35.776Z,24.83
2022-08-15T04:38:02.724Z,24.92
2022-08-15T04:41:18.298Z,25.00
2022-08-15T04:43:19.496Z,25.05
2022-08-15T04:45:46.503Z,25.10
2022-08-15T04:48:19.561Z,25.18
2022-08-15T04:50:49.620Z,25.26
2022-08-15T04:53:20.676Z,25.36
2022-08-15T04:55:53.171Z,25.46
2022-08-15T04:58:42.979Z,25.54
2022-08-15T05:01:09.769Z,25.64
2022-08-15T05:03:38.801Z,25.73
2022-08-15T05:06:31.586Z,25.79
2022-08-15T05:08:56.595Z,25.88
2022-08-15T05:11:23.643Z,25.98
2022-08-15T05:13:50.589Z,26.06
2022-08-15T05:16:17.530Z,26.12
2022-08-15T05:18:46.586Z,26.17
2022-08-15T05:21:14.493Z,26.24
2022-08-15T05:23:44.298Z,26.34
2022-08-15T05:26:37.622Z,26.44
2022-08-15T05:29:00.108Z,26.54
2022-08-15T05:31:32.326Z,26.63
2022-08-15T05:34:01.309Z,26.73
2022-08-15T05:36:29.737Z,26.84
2022-08-15T05:39:12.673Z,26.99
2022-08-15T05:42:11.754Z,27.14
2022-08-15T05:45:30.302Z,27.32
2022-08-15T05:48:20.701Z,27.53
2022-08-15T05:50:59.825Z,27.73
2022-08-15T05:53:37.765Z,27.87
2022-08-15T05:56:40.087Z,28.01
2022-08-15T05:59:17.401Z,28.14
2022-08-15T06:02:34.336Z,28.24
2022-08-15T06:04:47.683Z,28.33
2022-08-15T06:07:15.754Z,28.39
2022-08-15T06:09:54.202Z,28.47
2022-08-15T06:12:39.855Z,28.57
2022-08-15T06:15:32.830Z,28.69
2022-08-15T06:18:03.034Z,28.84
2022-08-15T06:20:52.496Z,28.99
2022-08-15T06:23:36.743Z,29.15
2022-08-15T06:26:40.787Z,29.32
2022-08-15T06:29:26.669Z,29.48
2022-08-15T06:31:59.540Z,29.63
2022-08-15T06:34:54.445Z,29.78
2022-08-15T06:37:24.174Z,29.95
2022-08-15T06:40:48.353Z,30.14
2022-08-15T06:43:19.833Z,30.38
2022-08-15T06:45:50.690Z,30.51
2022-08-15T06:48:59.503Z,30.62
2022-08-15T06:51:07.883Z,30.75
2022-08-15T06:53:39.890Z,30.86
2022-08-15T06:56:30.656Z,30.98
2022-08-15T06:59:36.024Z,31.12
2022-08-15T07:02:45.427Z,31.21
2022-08-15T07:05:24.031Z,31.25
2022-08-15T07:08:18.563Z,31.32
2022-08-15T07:11:13.916Z,31.42
2022-08-15T07:13:57.460Z,31.52
2022-08-15T07:16:35.760Z,31.60
2022-08-15T07:19:03.034Z,31.90
2022-08-15T07:21:52.219Z,32.07
2022-08-15T07:24:35.647Z,32.25
2022-08-15T07:27:04.270Z,32.38
2022-08-15T07:29:40.500Z,32.52
2022-08-15T07:32:19.225Z,32.58
2022-08-15T07:35:18.968Z,32.54
2022-08-15T07:37:48.886Z,32.51
2022-08-15T07:40:29.235Z,32.48
2022-08-15T07:43:00.883Z,32.44
2022-08-15T07:45:32.622Z,32.50
2022-08-15T07:48:07.387Z,32.51
2022-08-15T07:50:42.707Z,32.63
2022-08-15T07:53:18.297Z,32.67
2022-08-15T07:56:45.559Z,32.64
2022-08-15T07:59:24.417Z,32.62
2022-08-15T08:02:07.880Z,32.76
2022-08-15T08:04:37.666Z,32.96
2022-08-15T08:07:34.452Z,33.11
2022-08-15T08:10:23.035Z,33.32
2022-08-15T08:13:20.007Z,33.60
2022-08-15T08:16:30.461Z,33.76
2022-08-15T08:19:10.817Z,33.82
2022-08-15T08:21:44.736Z,33.87
2022-08-15T08:24:53.150Z,33.86
2022-08-15T08:27:23.062Z,33.87
2022-08-15T08:30:42.698Z,33.96
2022-08-15T08:33:16.355Z,34.01
2022-08-15T08:36:36.130Z,33.94
2022-08-15T08:39:05.329Z,33.91
2022-08-15T08:41:45.546Z,34.08
2022-08-15T08:44:44.372Z,34.43
2022-08-15T08:47:53.324Z,34.72
2022-08-15T08:50:33.526Z,34.74
2022-08-15T08:53:30.145Z,34.87
2022-08-15T08:56:33.851Z,35.08
2022-08-15T08:59:06.823Z,35.32
2022-08-15T09:01:38.308Z,35.47
2022-08-15T09:04:13.415Z,35.54
2022-08-15T09:06:47.466Z,35.50
2022-08-15T09:09:30.438Z,35.49
2022-08-15T09:12:29.344Z,35.57
2022-08-15T09:15:02.308Z,35.73
2022-08-15T09:17:34.706Z,35.89
2022-08-15T09:20:12.321Z,35.92
2022-08-15T09:22:48.246Z,36.03
2022-08-15T09:25:15.532Z,36.20
2022-08-15T09:27:54.648Z,36.17
2022-08-15T09:30:45.132Z,36.05
2022-08-15T09:33:29.381Z,36.03
2022-08-15T09:36:25.180Z,36.20
2022-08-15T09:39:04.330Z,36.31
2022-08-15T09:41:45.859Z,36.41
2022-08-15T09:44:57.295Z,36.57
2022-08-15T09:47:55.719Z,36.69
2022-08-15T09:50:42.463Z,36.83
2022-08-15T09:53:20.375Z,36.94
2022-08-15T09:55:53.949Z,37.12
2022-08-15T09:58:27.432Z,37.34
2022-08-15T10:01:17.397Z,37.39
2022-08-15T10:03:48.157Z,37.13
2022-08-15T10:06:41.765Z,36.99
2022-08-15T10:09:27.375Z,37.00
2022-08-15T10:12:02.226Z,36.99
2022-08-15T10:14:44.285Z,36.88
2022-08-15T10:17:37.060Z,36.83
2022-08-15T10:20:27.480Z,36.73
2022-08-15T10:23:01.998Z,36.61
2022-08-15T10:25:40.166Z,36.52
2022-08-15T10:28:38.912Z,36.42
2022-08-15T10:31:06.858Z,36.36
2022-08-15T10:33:36.776Z,36.30
2022-08-15T10:36:30.526Z,36.30
2022-08-15T10:39:21.947Z,36.17
2022-08-15T10:42:33.967Z,36.05
2022-08-15T10:45:11.618Z,35.95
2022-08-15T10:48:16.816Z,35.87
2022-08-15T10:51:11.130Z,35.71
2022-08-15T10:53:55.752Z,35.68
2022-08-15T10:57:06.397Z,35.66
2022-08-15T10:59:20.341Z,35.68
2022-08-15T11:01:53.147Z,35.72
2022-08-15T11:04:49.634Z,35.75
2022-08-15T11:07:31.337Z,35.85
2022-08-15T11:10:00.107Z,36.09
2022-08-15T11:12:32.887Z,36.31
2022-08-15T11:15:22.163Z,36.49
2022-08-15T11:18:23.615Z,36.53
2022-08-15T11:20:53.837Z,36.54
2022-08-15T11:23:37.386Z,36.67
2022-08-15T11:26:18.741Z,36.73
2022-08-15T11:29:16.879Z,36.79
2022-08-15T11:31:47.911Z,36.72
2022-08-15T11:34:42.724Z,36.41
2022-08-15T11:37:19.779Z,36.06
2022-08-15T11:39:57.658Z,35.88
2022-08-15T11:42:25.119Z,35.72
2022-08-15T11:45:29.769Z,35.62
2022-08-15T11:48:35.179Z,35.41
2022-08-15T11:51:16.704Z,35.33
2022-08-15T11:54:06.071Z,35.33
2022-08-15T11:57:04.463Z,35.31
2022-08-15T12:00:00.251Z,35.39
2022-08-15T12:05:44.634Z,35.51
2022-08-15T12:08:34.637Z,35.53
2022-08-15T12:11:07.870Z,35.50
2022-08-15T12:13:11.915Z,35.50
2022-08-15T12:13:36.911Z,35.48
2022-08-15T12:16:10.609Z,35.49
2022-08-15T12:18:55.054Z,35.54
2022-08-15T12:21:22.742Z,35.59
2022-08-15T12:24:02.331Z,35.70
2022-08-15T12:26:40.356Z,35.85
2022-08-15T12:29:18.535Z,35.99
2022-08-15T12:31:46.302Z,36.06
2022-08-15T12:34:26.480Z,36.17
2022-08-15T12:37:03.616Z,36.30
2022-08-15T12:39:40.944Z,36.35
2022-08-15T12:42:49.994Z,36.35
2022-08-15T12:45:01.477Z,36.42
2022-08-15T12:47:32.693Z,36.52
2022-08-15T12:50:06.967Z,36.62
2022-08-15T12:52:35.203Z,36.73
2022-08-15T12:55:02.404Z,36.81
2022-08-15T12:57:52.465Z,36.85
2022-08-15T13:00:34.940Z,36.88
2022-08-15T13:03:19.325Z,36.92
2022-08-15T13:06:03.305Z,36.95
2022-08-15T13:08:39.630Z,36.97
2022-08-15T13:11:13.448Z,36.97
2022-08-15T13:13:43.558Z,36.94
2022-08-15T13:17:06.167Z,36.87
2022-08-15T13:18:59.426Z,36.79
2022-08-15T13:21:58.254Z,36.69
2022-08-15T13:24:27.296Z,36.56
2022-08-15T13:26:54.825Z,36.44
2022-08-15T13:29:25.055Z,36.31
2022-08-15T13:31:53.406Z,36.17
2022-08-15T13:34:21.722Z,36.02
2022-08-15T13:36:54.420Z,35.85
2022-08-15T13:39:29.435Z,35.68
2022-08-15T13:42:05.512Z,35.53
2022-08-15T13:44:47.375Z,35.38
2022-08-15T13:47:16.937Z,35.22
2022-08-15T13:49:45.168Z,35.09
2022-08-15T13:52:45.377Z,34.98
2022-08-15T13:55:09.734Z,34.88
2022-08-15T13:58:06.057Z,34.78
2022-08-15T14:00:56.614Z,34.67
2022-08-15T14:03:23.910Z,34.64
2022-08-15T14:05:52.042Z,34.60
2022-08-15T14:08:27.607Z,34.52
2022-08-15T14:11:14.041Z,34.41
2022-08-15T14:13:42.559Z,34.33
2022-08-15T14:16:41.868Z,34.28
2022-08-15T14:19:01.585Z,34.21
2022-08-15T14:21:29.625Z,34.17
2022-08-15T14:23:59.623Z,34.04
2022-08-15T14:27:14.290Z,33.94
2022-08-15T14:29:17.012Z,33.88
2022-08-15T14:31:54.554Z,33.84
2022-08-15T14:37:17.619Z,33.74
2022-08-15T14:39:48.829Z,33.68
2022-08-15T14:42:17.499Z,33.61
2022-08-15T14:44:49.710Z,33.49
2022-08-15T14:47:17.627Z,33.36
2022-08-15T14:50:46.104Z,33.25
2022-08-15T14:52:33.134Z,33.26
2022-08-15T14:55:01.614Z,33.33
2022-08-15T14:57:37.989Z,33.38
2022-08-15T15:00:10.680Z,33.42
2022-08-15T15:02:50.730Z,33.44
2022-08-15T15:06:07.183Z,33.43
2022-08-15T15:08:19.740Z,33.41
2022-08-15T15:10:49.724Z,33.38
2022-08-15T15:13:19.034Z,33.35
2022-08-15T15:16:13.744Z,33.29
2022-08-15T15:18:45.806Z,33.17
2022-08-15T15:21:24.339Z,33.01
2022-08-15T15:23:54.356Z,32.83
2022-08-15T15:26:36.449Z,32.66
2022-08-15T15:29:06.993Z,32.46
2022-08-15T15:31:41.258Z,32.29
2022-08-15T15:34:14.915Z,32.11
2022-08-15T15:36:46.690Z,32.00
2022-08-15T15:39:46.131Z,31.94
2022-08-15T15:42:16.465Z,31.87
2022-08-15T15:44:44.779Z,31.79
2022-08-15T15:47:11.763Z,31.77
2022-08-15T15:49:45.587Z,31.79
2022-08-15T15:52:19.250Z,31.76
2022-08-15T15:54:53.137Z,31.73
2022-08-15T15:57:25.155Z,31.72
2022-08-15T15:59:59.465Z,31.71
2022-08-15T16:02:53.199Z,31.70
2022-08-15T16:06:58.644Z,31.71
2022-08-15T16:08:32.478Z,31.69
2022-08-15T16:11:42.351Z,31.61
2022-08-15T16:14:54.625Z,31.51
2022-08-15T16:18:03.759Z,31.37
2022-08-15T16:20:43.537Z,31.16
2022-08-15T16:23:23.931Z,30.93
2022-08-15T16:26:15.229Z,30.73
2022-08-15T16:28:47.976Z,30.57
2022-08-15T16:31:44.688Z,30.48
2022-08-15T16:34:16.000Z,30.38
2022-08-15T16:36:46.100Z,30.29
2022-08-15T16:39:28.101Z,30.23
2022-08-15T16:41:57.731Z,30.16
2022-08-15T16:44:39.922Z,30.08
2022-08-15T16:47:25.576Z,29.99
2022-08-15T16:50:17.029Z,29.88
2022-08-15T16:53:10.395Z,29.78
2022-08-15T16:55:57.106Z,29.68
2022-08-15T16:58:39.723Z,29.57
2022-08-15T17:01:40.791Z,29.47
2022-08-15T17:04:30.352Z,29.40
2022-08-15T17:07:16.145Z,29.30
2022-08-15T17:10:03.261Z,29.27
2022-08-15T17:12:54.531Z,29.24
2022-08-15T17:15:35.356Z,29.25
2022-08-15T17:18:26.879Z,29.26
2022-08-15T17:21:21.046Z,29.28
2022-08-15T17:24:43.021Z,29.31
2022-08-15T17:27:18.583Z,29.35
2022-08-15T17:29:43.078Z,29.36
2022-08-15T17:32:19.148Z,29.34
2022-08-15T17:34:48.366Z,29.31
2022-08-15T17:37:19.852Z,29.30
2022-08-15T17:40:06.189Z,29.27
2022-08-15T17:42:36.514Z,29.24
2022-08-15T17:45:37.779Z,29.20
2022-08-15T17:48:31.479Z,29.16
2022-08-15T17:51:11.861Z,29.14
2022-08-15T17:53:52.687Z,29.12
2022-08-15T17:56:44.712Z,29.09
2022-08-15T17:59:18.713Z,29.08
2022-08-15T18:01:46.608Z,29.11
2022-08-15T18:04:30.895Z,29.15
2022-08-15T18:06:58.556Z,29.16
2022-08-15T18:10:30.953Z,29.15
2022-08-15T18:12:18.367Z,29.10
2022-08-15T18:14:47.003Z,29.03
2022-08-15T18:17:24.692Z,28.90
2022-08-15T18:20:27.954Z,28.80
2022-08-15T18:22:57.865Z,28.74
2022-08-15T18:25:58.628Z,28.67
2022-08-15T18:28:32.871Z,28.58
2022-08-15T18:31:24.200Z,28.50
2022-08-15T18:34:05.553Z,28.43
2022-08-15T18:36:48.205Z,28.37
2022-08-15T18:39:34.009Z,28.29
2022-08-15T18:42:08.857Z,28.17
2022-08-15T18:44:39.811Z,28.07
2022-08-15T18:47:09.576Z,28.01
2022-08-15T18:49:39.964Z,27.99
2022-08-15T18:52:11.116Z,27.95
2022-08-15T18:55:00.052Z,27.94
2022-08-15T18:57:43.132Z,27.88
2022-08-15T19:00:16.562Z,27.84
